Time;durP1;ratioP1;P1;durP2;ratioP2;P2;SDS_P1;SDS_P2;PMS_P1;PMS_P2;Temp;Humidity;BMP_temperature;BMP_pressure;BME280_temperature;BME280_humidity;BME280_pressure;Samples;Min_cycle;Max_cycle;Signal;HPM_P1;HPM_P2
2022/11/15 00:01:51;;;;;;;1999.90;999.90;;;;;;;4.30;100.00;100586.00;5019776;28;20057;-76
2022/11/15 00:04:35;;;;;;;1999.90;999.90;;;;;;;4.35;100.00;100587.00;5018340;28;20172;-76
2022/11/15 00:07:19;;;;;;;1999.90;999.90;;;;;;;4.29;100.00;100586.84;5016790;28;20436;-76
2022/11/15 00:10:03;;;;;;;1999.90;999.90;;;;;;;4.23;100.00;100589.34;5019369;28;20049;-76
2022/11/15 00:12:47;;;;;;;1999.90;999.90;;;;;;;4.21;100.00;100584.94;5019792;28;20096;-76
2022/11/15 00:15:31;;;;;;;1999.90;999.90;;;;;;;4.17;100.00;100584.00;5017387;28;20515;-76
2022/11/15 00:18:16;;;;;;;1999.90;999.90;;;;;;;4.18;100.00;100578.78;5018582;28;20048;-76
2022/11/15 00:21:06;;;;;;;1999.90;999.90;;;;;;;4.25;100.00;100592.00;5017628;28;20064;-75
2022/11/15 00:23:50;;;;;;;1999.90;999.90;;;;;;;4.15;100.00;100591.78;5017753;28;20111;-76
2022/11/15 00:26:34;;;;;;;1999.90;999.90;;;;;;;4.22;100.00;100581.47;5016240;28;20040;-75
2022/11/15 00:29:18;;;;;;;1999.90;999.90;;;;;;;4.21;100.00;100588.41;5019281;28;20044;-76
2022/11/15 00:32:02;;;;;;;1999.90;999.90;;;;;;;4.15;100.00;100593.53;5022422;28;20546;-76
2022/11/15 00:34:46;;;;;;;1999.90;999.90;;;;;;;4.05;100.00;100591.56;5019266;28;20056;-76
2022/11/15 00:37:30;;;;;;;1999.90;999.90;;;;;;;3.99;100.00;100584.50;5017708;28;20087;-76
2022/11/15 00:40:14;;;;;;;1999.90;999.90;;;;;;;3.96;100.00;100579.22;5004227;28;20057;-76
2022/11/15 00:42:58;;;;;;;1999.90;999.90;;;;;;;3.93;100.00;100577.41;5015071;28;20137;-76
2022/11/15 00:45:42;;;;;;;1999.90;999.90;;;;;;;3.95;100.00;100578.31;5020614;28;20049;-76
2022/11/15 00:48:26;;;;;;;1999.90;999.90;;;;;;;3.90;100.00;100577.34;5020113;28;20099;-76
2022/11/15 00:51:10;;;;;;;1999.90;999.90;;;;;;;3.94;100.00;100568.72;5018305;28;20108;-76
2022/11/15 00:53:54;;;;;;;1999.90;999.90;;;;;;;3.96;100.00;100576.59;5019626;28;20087;-76
2022/11/15 00:56:38;;;;;;;1999.90;999.90;;;;;;;3.99;100.00;100573.19;5022659;28;20076;-76
2022/11/15 00:59:21;;;;;;;1999.90;999.90;;;;;;;3.82;100.00;100576.28;5022680;28;20121;-75
2022/11/15 01:02:05;;;;;;;1999.90;999.90;;;;;;;3.83;100.00;100572.84;5022018;28;20065;-76
2022/11/15 01:04:49;;;;;;;1999.90;999.90;;;;;;;3.94;100.00;100573.94;5022125;28;20044;-76
2022/11/15 01:07:33;;;;;;;1999.90;999.90;;;;;;;3.91;100.00;100573.88;5020403;28;20071;-75
2022/11/15 01:10:18;;;;;;;1999.90;999.90;;;;;;;3.89;100.00;100564.25;5018957;28;20044;-75
2022/11/15 01:13:01;;;;;;;1999.90;999.90;;;;;;;3.91;100.00;100568.66;5022567;28;20075;-75
2022/11/15 01:15:45;;;;;;;1999.90;999.90;;;;;;;3.94;100.00;100568.72;5023670;28;20045;-76
2022/11/15 01:18:29;;;;;;;1999.90;999.90;;;;;;;3.92;100.00;100569.53;5022348;28;20049;-76
2022/11/15 01:21:17;;;;;;;1999.90;999.90;;;;;;;3.92;100.00;100562.56;5020858;28;20128;-76
2022/11/15 01:24:01;;;;;;;1999.90;999.90;;;;;;;3.95;100.00;100559.16;5021227;28;20053;-75
2022/11/15 01:26:45;;;;;;;1999.90;999.90;;;;;;;3.97;100.00;100556.59;5018527;28;20053;-76
2022/11/15 01:29:29;;;;;;;1999.90;999.90;;;;;;;3.88;100.00;100555.53;5022120;28;20135;-76
2022/11/15 01:32:13;;;;;;;1999.90;999.90;;;;;;;3.81;100.00;100545.81;5023371;28;20072;-76
2022/11/15 01:34:57;;;;;;;1999.90;999.90;;;;;;;3.83;100.00;100544.13;5021811;28;20053;-76
2022/11/15 01:37:42;;;;;;;1999.90;999.90;;;;;;;3.87;100.00;100543.31;5020092;28;20052;-76
2022/11/15 01:40:25;;;;;;;1999.90;999.90;;;;;;;3.81;100.00;100540.59;5019019;28;20145;-75
2022/11/15 01:43:31;;;;;;;1999.90;999.90;;;;;;;3.88;100.00;100536.41;5021845;28;20572;-76
2022/11/15 01:46:27;;;;;;;1999.90;999.90;;;;;;;3.90;100.00;100530.34;5021681;28;20076;-75
2022/11/15 01:49:14;;;;;;;1999.90;999.90;;;;;;;3.89;100.00;100525.97;5023504;28;20088;-75
2022/11/15 01:52:01;;;;;;;1999.90;999.90;;;;;;;3.84;100.00;100524.97;5022760;28;20084;-76
2022/11/15 01:54:48;;;;;;;1999.90;999.90;;;;;;;3.80;100.00;100527.50;5022219;28;20045;-76
2022/11/15 01:57:31;;;;;;;1999.90;999.90;;;;;;;3.78;100.00;100522.25;5018466;28;20092;-76
2022/11/15 02:00:16;;;;;;;1999.90;999.90;;;;;;;3.83;100.00;100518.00;5021378;28;20520;-75
2022/11/15 02:03:00;;;;;;;1999.90;999.90;;;;;;;3.84;100.00;100516.28;5021500;28;20064;-76
2022/11/15 02:05:44;;;;;;;1999.90;999.90;;;;;;;3.85;100.00;100500.66;5010584;28;20084;-76
2022/11/15 02:08:28;;;;;;;1999.90;999.90;;;;;;;3.79;100.00;100510.94;5021860;28;20052;-76
2022/11/15 02:11:13;;;;;;;1999.90;999.90;;;;;;;3.74;100.00;100507.38;5020549;28;20045;-75
2022/11/15 02:14:00;;;;;;;1999.90;999.90;;;;;;;3.73;100.00;100503.00;5023555;28;20060;-76
2022/11/15 02:17:01;;;;;;;1999.90;999.90;;;;;;;3.71;100.00;100496.88;5019720;28;20156;-75
2022/11/15 02:20:30;;;;;;;1999.90;999.90;;;;;;;3.74;100.00;100499.53;5023146;28;20076;-76
2022/11/15 02:23:45;;;;;;;1999.90;999.90;;;;;;;3.71;100.00;100492.50;5018223;28;20040;-76
2022/11/15 02:26:47;;;;;;;1999.90;999.90;;;;;;;3.68;100.00;100486.38;5017605;28;20061;-76
2022/11/15 02:29:46;;;;;;;1999.90;999.90;;;;;;;3.86;100.00;100485.88;5019126;28;20047;-77
2022/11/15 02:32:50;;;;;;;1999.90;999.90;;;;;;;3.92;100.00;100488.59;5023407;28;20115;-78
2022/11/15 02:35:47;;;;;;;1999.90;999.90;;;;;;;3.88;100.00;100489.41;5019691;28;20084;-77
2022/11/15 02:38:46;;;;;;;1999.90;999.90;;;;;;;3.84;100.00;100479.72;5022016;28;20052;-77
2022/11/15 02:41:52;;;;;;;1999.90;999.90;;;;;;;3.85;100.00;100485.00;5023852;28;20096;-76
2022/11/15 02:44:44;;;;;;;1999.90;999.90;;;;;;;3.80;100.00;100476.19;5021185;28;20044;-77
2022/11/15 02:47:32;;;;;;;1999.90;999.90;;;;;;;3.77;100.00;100476.09;5021666;28;20171;-77
2022/11/15 02:50:20;;;;;;;1999.90;999.90;;;;;;;3.81;100.00;100467.50;5021563;28;20051;-77
2022/11/15 02:53:04;;;;;;;1999.90;999.90;;;;;;;3.85;100.00;100453.66;5020838;28;20460;-77
2022/11/15 02:55:51;;;;;;;1999.90;999.90;;;;;;;3.81;100.00;100467.50;5019226;28;20092;-77
2022/11/15 02:59:04;;;;;;;1999.90;999.90;;;;;;;3.85;100.00;100460.59;5017049;28;20071;-77
2022/11/15 03:02:04;;;;;;;1999.90;999.90;;;;;;;3.80;100.00;100464.84;5023354;28;20037;-77
2022/11/15 03:05:03;;;;;;;1999.90;999.90;;;;;;;3.67;100.00;100458.50;5022604;28;20065;-77
2022/11/15 03:08:31;;;;;;;1999.90;999.90;;;;;;;3.73;100.00;100463.84;5022890;28;20419;-77
2022/11/15 03:11:18;;;;;;;1999.90;999.90;;;;;;;3.66;100.00;100451.50;5017544;28;20125;-77
2022/11/15 03:14:26;;;;;;;1999.90;999.90;;;;;;;3.67;100.00;100463.72;5017806;28;20133;-77
2022/11/15 03:17:25;;;;;;;1999.90;999.90;;;;;;;3.70;100.00;100456.84;5021267;28;20187;-77
2022/11/15 03:20:12;;;;;;;1999.90;999.90;;;;;;;3.68;100.00;100455.91;5020283;28;20428;-78
2022/11/15 03:23:03;;;;;;;1999.90;999.90;;;;;;;3.71;100.00;100449.88;4995484;28;20064;-77
2022/11/15 03:25:50;;;;;;;1999.90;999.90;;;;;;;3.71;100.00;100455.09;5014377;28;20040;-77
2022/11/15 03:28:40;;;;;;;1999.90;999.90;;;;;;;3.68;100.00;100452.44;5018190;28;20095;-77
2022/11/15 03:31:46;;;;;;;1999.90;999.90;;;;;;;3.63;100.00;100444.50;5015807;28;20600;-77
2022/11/15 03:34:52;;;;;;;1999.90;999.90;;;;;;;3.71;100.00;100449.88;5022061;28;20041;-77
2022/11/15 03:37:43;;;;;;;1999.90;999.90;;;;;;;3.77;100.00;100439.56;4993437;28;20527;-77
2022/11/15 03:40:36;;;;;;;1999.90;999.90;;;;;;;3.78;100.00;100436.09;5019281;28;20048;-77
2022/11/15 03:43:50;;;;;;;1999.90;999.90;;;;;;;3.74;100.00;100424.72;5017128;28;20378;-77
2022/11/15 03:46:48;;;;;;;1999.90;999.90;;;;;;;3.73;100.00;100427.31;5020348;28;20041;-77
2022/11/15 03:49:40;;;;;;;1999.90;999.90;;;;;;;3.66;100.00;100434.13;5020208;28;20099;-77
2022/11/15 03:52:24;;;;;;;1999.90;999.90;;;;;;;3.64;100.00;100427.09;5022859;28;20045;-77
2022/11/15 03:55:13;;;;;;;1999.90;999.90;;;;;;;3.64;100.00;100421.88;5019453;28;20137;-77
2022/11/15 03:57:59;;;;;;;1999.90;999.90;;;;;;;3.61;100.00;100432.28;5019518;28;20044;-77
2022/11/15 04:00:43;;;;;;;1999.90;999.90;;;;;;;3.69;100.00;100435.91;5018790;28;20049;-77
2022/11/15 04:03:27;;;;;;;1999.90;999.90;;;;;;;3.70;100.00;100424.63;5016912;28;20064;-77
2022/11/15 04:06:11;;;;;;;1999.90;999.90;;;;;;;3.70;100.00;100424.63;5019277;28;20044;-77
2022/11/15 04:08:55;;;;;;;1999.90;999.90;;;;;;;3.74;100.00;100418.59;5019683;28;20099;-77
2022/11/15 04:11:39;;;;;;;1999.90;999.90;;;;;;;3.71;100.00;100429.88;5020286;28;20107;-77
2022/11/15 04:14:22;;;;;;;1999.90;999.90;;;;;;;3.64;100.00;100428.00;5018879;28;20049;-77
2022/11/15 04:17:06;;;;;;;1999.90;999.90;;;;;;;3.68;100.00;100435.03;5016877;28;20542;-77
2022/11/15 04:26:03;;;;;;;1999.90;999.90;;;;;;;3.72;100.00;100420.31;5019565;28;20108;-77
2022/11/15 04:31:50;;;;;;;1999.90;999.90;;;;;;;3.77;100.00;100429.09;5023370;28;20048;-77
2022/11/15 04:34:35;;;;;;;1999.90;999.90;;;;;;;3.73;100.00;100424.69;5020858;28;20160;-77
2022/11/15 04:37:19;;;;;;;1999.90;999.90;;;;;;;3.69;100.00;100426.38;5018415;28;20169;-77
2022/11/15 04:40:03;;;;;;;1999.90;999.90;;;;;;;3.66;100.00;100426.28;5025590;28;20049;-77
2022/11/15 04:42:47;;;;;;;1999.90;999.90;;;;;;;3.66;100.00;100425.41;5023037;28;20044;-77
2022/11/15 04:45:31;;;;;;;1999.90;999.90;;;;;;;3.65;100.00;100418.44;5022486;28;20068;-77
2022/11/15 04:48:15;;;;;;;1999.90;999.90;;;;;;;3.65;100.00;100424.53;5020108;28;20111;-77
2022/11/15 04:50:59;;;;;;;1999.90;999.90;;;;;;;3.69;100.00;100415.03;5020721;28;20048;-77
2022/11/15 04:53:42;;;;;;;1999.90;999.90;;;;;;;3.65;100.00;100424.53;5019390;28;20041;-77
2022/11/15 04:56:26;;;;;;;1999.90;999.90;;;;;;;3.60;100.00;100428.78;5022660;28;20048;-77
2022/11/15 04:59:10;;;;;;;1999.90;999.90;;;;;;;3.57;100.00;100425.25;5022253;28;20120;-77
2022/11/15 05:01:54;;;;;;;1999.90;999.90;;;;;;;3.48;100.00;100421.59;5005663;28;20104;-77
2022/11/15 05:04:38;;;;;;;1999.90;999.90;;;;;;;3.47;100.00;100427.66;5020678;28;20088;-77
2022/11/15 05:07:23;;;;;;;1999.90;999.90;;;;;;;3.47;100.00;100425.03;5019778;28;20052;-77
2022/11/15 05:10:07;;;;;;;1999.90;999.90;;;;;;;3.44;100.00;100422.38;5025920;28;20041;-75
2022/11/15 05:12:51;;;;;;;1999.90;999.90;;;;;;;3.39;100.00;100423.13;5025146;28;20056;-75
2022/11/15 05:15:35;;;;;;;1999.90;999.90;;;;;;;3.41;100.00;100422.31;5021577;28;20099;-74
2022/11/15 05:18:19;;;;;;;1999.90;999.90;;;;;;;3.46;100.00;100425.91;5019892;28;20053;-74
2022/11/15 05:21:08;;;;;;;1999.90;999.90;;;;;;;3.54;100.00;100423.44;5015554;28;20092;-74
2022/11/15 05:23:52;;;;;;;1999.90;999.90;;;;;;;3.42;100.00;100415.34;5018720;28;20056;-74
2022/11/15 05:26:36;;;;;;;1999.90;999.90;;;;;;;3.41;100.00;100426.66;5022425;28;20037;-74
2022/11/15 05:29:20;;;;;;;1999.90;999.90;;;;;;;3.43;100.00;100423.22;5025007;28;20068;-75
2022/11/15 05:32:05;;;;;;;1999.90;999.90;;;;;;;3.42;100.00;100416.22;5007594;28;20079;-74
2022/11/15 05:34:49;;;;;;;1999.90;999.90;;;;;;;3.43;100.00;100418.00;5018050;28;20040;-75
2022/11/15 05:37:33;;;;;;;1999.90;999.90;;;;;;;3.49;100.00;100412.03;5020558;28;20044;-75
2022/11/15 05:40:17;;;;;;;1999.90;999.90;;;;;;;3.45;100.00;100411.06;5014345;28;20057;-74
2022/11/15 05:43:04;;;;;;;1999.90;999.90;;;;;;;3.40;100.00;100414.44;5018908;28;20492;-74
2022/11/15 05:45:47;;;;;;;1999.90;999.90;;;;;;;3.42;100.00;100404.94;5021680;28;20530;-74
2022/11/15 05:48:34;;;;;;;1999.90;999.90;;;;;;;3.43;100.00;100410.19;5011975;28;20096;-75
2022/11/15 05:51:20;;;;;;;1999.90;999.90;;;;;;;3.45;100.00;100405.84;5018545;28;20566;-75
2022/11/15 05:54:04;;;;;;;1999.90;999.90;;;;;;;3.47;100.00;100412.00;5020097;28;20136;-74
2022/11/15 05:56:49;;;;;;;1999.90;999.90;;;;;;;3.53;100.00;100405.13;5022150;28;20110;-74
2022/11/15 05:59:34;;;;;;;1999.90;999.90;;;;;;;3.56;100.00;100403.47;5016240;28;20068;-74
2022/11/15 06:02:18;;;;;;;1999.90;999.90;;;;;;;3.49;100.00;100415.53;5016808;28;20444;-74
2022/11/15 06:05:03;;;;;;;1999.90;999.90;;;;;;;3.42;100.00;100415.34;5020702;28;20139;-75
2022/11/15 06:07:46;;;;;;;1999.90;999.90;;;;;;;3.42;100.00;100403.19;5019462;28;20443;-74
2022/11/15 06:10:30;;;;;;;1999.90;999.90;;;;;;;3.45;100.00;100410.19;5018218;28;20512;-74
2022/11/15 06:13:14;;;;;;;1999.90;999.90;;;;;;;3.41;100.00;100406.66;5016988;28;20468;-74
2022/11/15 06:15:58;;;;;;;1999.90;999.90;;;;;;;3.39;100.00;100407.47;5019512;28;20060;-74
2022/11/15 06:18:42;;;;;;;1999.90;999.90;;;;;;;3.44;100.00;100408.44;5021588;28;20146;-74
2022/11/15 06:21:30;;;;;;;1999.90;999.90;;;;;;;3.37;100.00;100407.44;5024321;28;20049;-74
2022/11/15 06:24:14;;;;;;;1999.90;999.90;;;;;;;3.26;100.00;100408.94;5021823;28;20092;-74
2022/11/15 06:26:58;;;;;;;1999.90;999.90;;;;;;;3.23;100.00;100409.75;5012835;28;20117;-75
2022/11/15 06:29:42;;;;;;;1999.90;999.90;;;;;;;3.27;100.00;100418.50;5019288;28;20060;-74
2022/11/15 06:32:26;;;;;;;1999.90;999.90;;;;;;;3.28;100.00;100418.56;5022268;28;20473;-74
2022/11/15 06:35:10;;;;;;;1999.90;999.90;;;;;;;3.35;100.00;100416.94;4993481;28;20048;-74
2022/11/15 06:37:54;;;;;;;1999.90;999.90;;;;;;;3.40;100.00;100417.91;5021288;28;20104;-74
2022/11/15 06:40:39;;;;;;;1999.90;999.90;;;;;;;3.43;100.00;100415.41;5019698;28;20491;-74
2022/11/15 06:43:22;;;;;;;1999.90;999.90;;;;;;;3.46;100.00;100415.47;5018231;28;20179;-75
2022/11/15 06:46:07;;;;;;;1999.90;999.90;;;;;;;3.59;100.00;100419.22;5020436;28;20049;-74
2022/11/15 06:48:52;;;;;;;1999.90;999.90;;;;;;;3.55;100.00;100421.72;5020687;28;20095;-74
2022/11/15 06:51:36;;;;;;;1999.90;999.90;;;;;;;3.53;100.00;100423.41;5019753;28;20463;-75
2022/11/15 06:54:20;;;;;;;1999.90;999.90;;;;;;;3.66;100.00;100417.59;5019708;28;20117;-74
2022/11/15 06:57:04;;;;;;;1999.90;999.90;;;;;;;3.70;100.00;100422.03;5014961;28;20388;-74
2022/11/15 06:59:49;;;;;;;1999.90;999.90;;;;;;;3.68;100.00;100423.72;5016226;28;20045;-74
2022/11/15 07:02:33;;;;;;;1999.90;999.90;;;;;;;3.72;100.00;100425.53;5020754;28;20122;-74
2022/11/15 07:05:17;;;;;;;1999.90;999.90;;;;;;;3.73;100.00;100424.69;5017808;28;20091;-74
2022/11/15 07:08:01;;;;;;;1999.90;999.90;;;;;;;3.76;100.00;100440.41;5019440;28;20064;-74
2022/11/15 07:10:44;;;;;;;1999.90;999.90;;;;;;;3.84;100.00;100427.50;5017306;28;20138;-74
2022/11/15 07:13:32;;;;;;;1999.90;999.90;;;;;;;4.04;100.00;100417.47;5011988;28;20040;-74
2022/11/15 07:16:16;;;;;;;1999.90;999.90;;;;;;;4.20;100.00;100426.44;5020496;28;20107;-74
2022/11/15 07:19:00;;;;;;;1999.90;999.90;;;;;;;4.26;100.00;100427.44;5019600;28;20052;-74
2022/11/15 07:21:44;;;;;;;1999.90;999.90;;;;;;;4.29;100.00;100427.47;5022669;28;20052;-74
2022/11/15 07:24:28;;;;;;;1999.90;999.90;;;;;;;4.33;100.00;100433.66;5018923;28;20451;-74
2022/11/15 07:27:12;;;;;;;1999.90;999.90;;;;;;;4.41;100.00;100428.56;5018598;28;20100;-74
2022/11/15 07:29:56;;;;;;;1999.90;999.90;;;;;;;4.54;100.00;100427.91;5015296;28;20041;-74
2022/11/15 07:32:40;;;;;;;1999.90;999.90;;;;;;;4.65;100.00;100433.31;5020479;28;20036;-74
2022/11/15 07:35:25;;;;;;;1999.90;999.90;;;;;;;4.75;100.00;100420.41;5019477;28;20408;-75
2022/11/15 07:38:09;;;;;;;1999.90;999.90;;;;;;;4.86;100.00;100427.53;5015788;28;20560;-74
2022/11/15 07:40:58;;;;;;;1999.90;999.90;;;;;;;4.95;100.00;100423.34;5017018;28;20061;-74
2022/11/15 07:43:41;;;;;;;1999.90;999.90;;;;;;;5.03;100.00;100424.31;5018511;28;20104;-74
2022/11/15 07:46:25;;;;;;;1999.90;999.90;;;;;;;5.17;100.00;100421.03;5017346;28;20053;-74
2022/11/15 07:49:09;;;;;;;1999.90;999.90;;;;;;;5.35;100.00;100428.25;5016069;28;20167;-74
2022/11/15 07:51:53;;;;;;;1999.90;999.90;;;;;;;5.51;100.00;100422.34;5019869;28;20040;-74
2022/11/15 07:54:37;;;;;;;1999.90;999.90;;;;;;;5.62;100.00;100427.72;5020878;28;20418;-74
2022/11/15 07:57:21;;;;;;;1999.90;999.90;;;;;;;5.76;100.00;100425.25;5016283;28;20053;-74
2022/11/15 08:00:06;;;;;;;1999.90;999.90;;;;;;;5.95;100.00;100421.13;5015703;28;20041;-75
2022/11/15 08:02:49;;;;;;;1999.90;999.90;;;;;;;6.08;100.00;100415.19;5015372;28;20091;-74
2022/11/15 08:05:35;;;;;;;1999.90;999.90;;;;;;;6.23;100.00;100414.44;5025159;28;20573;-74
2022/11/15 08:08:19;;;;;;;1999.90;999.90;;;;;;;6.33;100.00;100418.91;5028953;28;20056;-74
2022/11/15 08:11:03;;;;;;;1999.90;999.90;;;;;;;6.47;100.00;100411.16;5026916;28;20404;-74
2022/11/15 08:13:47;;;;;;;1999.90;999.90;;;;;;;6.55;100.00;100418.25;5021827;28;20630;-74
2022/11/15 08:16:32;;;;;;;1999.90;999.90;;;;;;;6.71;100.00;100415.75;5019528;28;20096;-74
2022/11/15 08:19:16;;;;;;;1999.90;999.90;;;;;;;6.89;100.00;100415.88;5016700;28;20044;-74
2022/11/15 08:22:00;;;;;;;1999.90;999.90;;;;;;;7.11;100.00;100410.78;5027953;28;20412;-74
2022/11/15 08:24:44;;;;;;;1999.90;999.90;;;;;;;7.24;100.00;100413.47;5027180;28;20110;-75
2022/11/15 08:27:28;;;;;;;1999.90;999.90;;;;;;;7.36;100.00;100412.66;5022117;28;20044;-74
2022/11/15 08:30:15;;;;;;;1999.90;999.90;;;;;;;7.52;100.00;100405.75;5024799;28;20117;-74
2022/11/15 08:32:59;;;;;;;1999.90;999.90;;;;;;;7.71;100.00;100403.19;5025523;28;20633;-74
2022/11/15 08:35:44;;;;;;;1999.90;999.90;;;;;;;7.85;100.00;100409.34;5026482;28;20122;-75
2022/11/15 08:38:28;;;;;;;1999.90;999.90;;;;;;;7.95;100.00;100407.63;5024531;28;20545;-74
2022/11/15 08:41:26;;;;;;;1999.90;999.90;;;;;;;8.11;100.00;100404.16;5027125;28;20044;-74
2022/11/15 08:44:10;;;;;;;1999.90;999.90;;;;;;;8.22;100.00;100405.03;5028889;28;20099;-75
2022/11/15 08:46:54;;;;;;;1999.90;999.90;;;;;;;8.37;100.00;100398.06;5028764;28;20041;-74
2022/11/15 08:49:37;;;;;;;1999.90;999.90;;;;;;;8.51;100.00;100404.22;5026274;28;20052;-75
2022/11/15 08:52:21;;;;;;;1999.90;999.90;;;;;;;8.66;100.00;100393.69;5027581;28;20538;-75
2022/11/15 08:55:06;;;;;;;1999.90;999.90;;;;;;;8.83;100.00;100390.16;5023532;28;20045;-74
2022/11/15 08:57:49;;;;;;;1999.90;999.90;;;;;;;8.93;100.00;100387.53;5022004;28;20049;-75
2022/11/15 09:00:33;;;;;;;1999.90;999.90;;;;;;;9.02;100.00;100384.00;5025958;28;20049;-74
2022/11/15 09:03:17;;;;;;;1999.90;999.90;;;;;;;9.11;100.00;100383.97;5024732;28;20060;-75
2022/11/15 09:06:01;;;;;;;1999.90;999.90;;;;;;;9.20;100.00;100381.31;5021784;28;20057;-74
2022/11/15 09:08:45;;;;;;;1999.90;999.90;;;;;;;9.33;100.00;100382.16;5020214;28;20044;-75
2022/11/15 09:11:29;;;;;;;1999.90;999.90;;;;;;;9.44;100.00;100384.75;5022124;28;20057;-75
2022/11/15 09:14:14;;;;;;;1999.90;999.90;;;;;;;9.56;100.00;100383.81;5024537;28;20415;-74
2022/11/15 09:16:58;;;;;;;1999.90;999.90;;;;;;;9.64;100.00;100377.66;5022556;28;20048;-75
2022/11/15 09:19:42;;;;;;;1999.90;999.90;;;;;;;9.74;100.00;100377.59;5022647;28;20529;-75
2022/11/15 09:22:26;;;;;;;1999.90;999.90;;;;;;;9.80;100.00;100383.72;5024877;28;20118;-74
2022/11/15 09:25:10;;;;;;;1999.90;999.90;;;;;;;9.88;100.00;100381.03;5014928;28;20119;-75
2022/11/15 09:27:55;;;;;;;1999.90;999.90;;;;;;;9.95;100.00;100374.81;5021581;28;20052;-74
2022/11/15 09:30:39;;;;;;;1999.90;999.90;;;;;;;10.00;100.00;100375.69;5021913;28;20049;-74
2022/11/15 09:33:23;;;;;;;1999.90;999.90;;;;;;;10.10;100.00;100373.84;5022590;28;20045;-75
2022/11/15 09:36:09;;;;;;;1999.90;999.90;;;;;;;10.20;100.00;100374.69;5019898;28;20049;-75
2022/11/15 09:38:53;;;;;;;1999.90;999.90;;;;;;;10.28;100.00;100386.09;5018955;28;20096;-75
2022/11/15 09:42:05;;;;;;;1999.90;999.90;;;;;;;10.43;100.00;100369.28;5002625;28;20112;-75
2022/11/15 09:45:07;;;;;;;1999.90;999.90;;;;;;;10.51;100.00;100370.94;5023495;28;20110;-75
2022/11/15 09:48:17;;;;;;;1999.90;999.90;;;;;;;10.60;100.00;100369.97;5019759;28;20045;-75
2022/11/15 09:51:24;;;;;;;1999.90;999.90;;;;;;;10.68;100.00;100368.16;4991408;28;20076;-75
2022/11/15 09:54:07;;;;;;;1999.90;999.90;;;;;;;10.73;100.00;100368.97;5019811;28;20042;-74
2022/11/15 09:56:37;;;;;;;1999.90;999.90;;;;;;;10.80;100.00;100374.22;5017406;28;20044;-75
2022/11/15 09:59:25;;;;;;;1999.90;999.90;;;;;;;10.91;100.00;100367.94;5018770;28;20040;-74
2022/11/15 10:02:07;;;;;;;1999.90;999.90;;;;;;;10.95;100.00;100367.03;5018538;28;20037;-75
2022/11/15 10:04:33;;;;;;;1999.90;999.90;;;;;;;11.01;100.00;100358.16;5024252;28;20034;-75
2022/11/15 10:07:19;;;;;;;1999.90;999.90;;;;;;;11.11;100.00;100365.09;5017689;28;20519;-74
2022/11/15 10:10:06;;;;;;;1999.90;999.90;;;;;;;11.19;100.00;100357.09;5021411;28;20041;-75
2022/11/15 10:12:31;;;;;;;1999.90;999.90;;;;;;;11.25;100.00;100349.06;5021389;28;20041;-74
2022/11/15 10:15:12;;;;;;;1999.90;999.90;;;;;;;11.31;100.00;100343.72;5024664;28;20037;-74
2022/11/15 10:18:02;;;;;;;1999.90;999.90;;;;;;;11.31;100.00;100335.78;5023806;28;20041;-75
2022/11/15 10:20:30;;;;;;;1999.90;999.90;;;;;;;11.25;100.00;100335.88;5020289;28;20072;-75
2022/11/15 10:23:00;;;;;;;1999.90;999.90;;;;;;;11.27;99.54;100334.09;5020947;28;20507;-74
2022/11/15 10:25:28;;;;;;;1999.90;999.90;;;;;;;11.33;100.00;100334.00;5018171;28;20121;-75
2022/11/15 10:28:00;;;;;;;1999.90;999.90;;;;;;;11.45;100.00;100332.09;5020982;28;20044;-75
2022/11/15 10:30:35;;;;;;;1999.90;999.90;;;;;;;11.55;99.68;100323.16;5024697;28;20030;-75
2022/11/15 10:33:17;;;;;;;1999.90;999.90;;;;;;;11.67;99.48;100323.00;5022379;28;20095;-75
2022/11/15 10:35:42;;;;;;;1999.90;999.90;;;;;;;11.73;99.64;100320.25;5018885;28;20075;-75
2022/11/15 10:38:10;;;;;;;1999.90;999.90;;;;;;;11.80;99.07;100311.34;5021642;28;20041;-75
2022/11/15 10:40:37;;;;;;;1999.90;999.90;;;;;;;11.85;98.19;100312.16;5022002;28;20033;-75
2022/11/15 10:43:14;;;;;;;1999.90;999.90;;;;;;;11.89;96.48;100313.00;5018657;28;20034;-75
2022/11/15 10:45:40;;;;;;;1999.90;999.90;;;;;;;11.92;97.06;100309.44;5020227;28;20037;-75
2022/11/15 10:48:11;;;;;;;1999.90;999.90;;;;;;;11.99;97.38;100314.59;5022409;28;20508;-75
2022/11/15 10:50:37;;;;;;;1999.90;999.90;;;;;;;12.03;96.53;100304.88;5020882;28;20034;-74
2022/11/15 10:53:03;;;;;;;1999.90;999.90;;;;;;;12.09;96.49;100303.91;5024244;28;20041;-75
2022/11/15 10:55:31;;;;;;;1999.90;999.90;;;;;;;12.18;95.95;100290.50;5023068;28;20033;-75
2022/11/15 10:58:21;;;;;;;1999.90;999.90;;;;;;;12.21;93.37;100298.41;5021620;28;20049;-74
2022/11/15 11:00:47;;;;;;;1999.90;999.90;;;;;;;12.26;94.60;100284.22;5019766;28;20088;-75
2022/11/15 11:03:29;;;;;;;1999.90;999.90;;;;;;;12.39;92.74;100284.88;5018637;28;20042;-75
2022/11/15 11:06:05;;;;;;;1999.90;999.90;;;;;;;12.48;92.88;100278.53;5018315;28;20411;-75
2022/11/15 11:08:31;;;;;;;1999.90;999.90;;;;;;;12.50;92.89;100268.81;5018856;28;20040;-75
2022/11/15 11:10:59;;;;;;;1999.90;999.90;;;;;;;12.44;92.91;100264.50;5016751;28;20026;-75
2022/11/15 11:13:32;;;;;;;1999.90;999.90;;;;;;;12.54;92.79;100266.97;5022642;28;20439;-75
2022/11/15 11:16:13;;;;;;;1999.90;999.90;;;;;;;12.70;91.49;100260.47;5022644;28;20034;-75
2022/11/15 11:19:04;;;;;;;1999.90;999.90;;;;;;;12.85;90.73;100260.16;5017800;28;20038;-75
2022/11/15 11:21:51;;;;;;;1999.90;999.90;;;;;;;12.99;89.50;100251.06;5017401;28;20041;-75
2022/11/15 11:24:43;;;;;;;1999.90;999.90;;;;;;;13.11;90.13;100250.81;5021425;28;20041;-75
2022/11/15 11:27:12;;;;;;;;;;;;;;;13.25;87.52;100243.44;5010249;28;20091;-75
2022/11/15 11:30:02;;;;;;;1999.90;999.90;;;;;;;13.42;87.19;100244.91;5016207;28;19968;-74
2022/11/15 11:32:40;;;;;;;1999.90;999.90;;;;;;;13.51;87.39;100237.59;5017404;28;20112;-75
2022/11/15 11:35:12;;;;;;;1999.90;999.90;;;;;;;13.62;87.50;100225.88;5010798;28;20037;-75
2022/11/15 11:37:54;;;;;;;1999.90;999.90;;;;;;;13.76;87.29;100229.09;5003180;28;20117;-75
2022/11/15 11:40:47;;;;;;;1999.90;999.90;;;;;;;13.86;87.94;100224.41;5020926;28;20048;-75
2022/11/15 11:43:38;;;;;;;1999.90;999.90;;;;;;;13.98;87.54;100219.66;5015947;28;20146;-74
2022/11/15 11:46:30;;;;;;;1999.90;999.90;;;;;;;14.10;86.27;100218.50;5015969;28;20496;-75
2022/11/15 11:49:10;;;;;;;1999.90;999.90;;;;;;;14.22;86.13;100209.34;5021236;28;20045;-75
2022/11/15 11:51:43;;;;;;;1999.90;999.90;;;;;;;14.27;84.92;100207.44;5020773;28;20100;-74
2022/11/15 11:54:22;;;;;;;1999.90;999.90;;;;;;;14.32;85.59;100208.19;5023002;28;20079;-75
2022/11/15 11:56:49;;;;;;;1999.90;999.90;;;;;;;14.47;85.59;100204.25;5019920;28;20084;-75
2022/11/15 11:59:27;;;;;;;1999.90;999.90;;;;;;;14.65;85.46;100201.13;5013850;28;20043;-75
2022/11/15 12:01:52;;;;;;;1999.90;999.90;;;;;;;14.77;84.00;100191.91;5017544;28;20116;-75
2022/11/15 12:04:26;;;;;;;1999.90;999.90;;;;;;;14.92;83.71;100192.41;5019262;28;20120;-75
2022/11/15 12:06:58;;;;;;;1999.90;999.90;;;;;;;14.93;82.56;100188.81;5004178;28;20550;-75
2022/11/15 12:09:32;;;;;;;1999.90;999.90;;;;;;;15.03;82.11;100184.97;5020369;28;20622;-75
2022/11/15 12:12:35;;;;;;;1999.90;999.90;;;;;;;15.19;81.28;100172.94;5019588;28;20030;-75
2022/11/15 12:15:13;;;;;;;1999.90;999.90;;;;;;;15.31;81.05;100169.91;5015267;28;20041;-75